General Aviation Weather

Text Reports

Enter one or more of the following location identifiers separated by a space:

Zip Code, Four-Character ICAO or Three-Character IATA airport codes.

METAR - Aviation Routine Weather Report
KGLY - Clinton, Missouri
Updated at 7:15 AM GMT on December 29, 2014 (1:15 AM CST):
METAR KGLY 290715Z AUTO 00000KT 10SM CLR M05/M05 A3022 RMK AO2
TAF - Terminal Area Forecast
KGLY - Clinton, Missouri
Updated at 7:15 AM GMT on December 29, 2014 (1:15 AM CST):
No TAF is currently available for this location.
Decoded:
No decoded TAF is available.
PIREP - Pilot Weather Report
KGLY - Clinton, Missouri
Updated at 7:15 AM GMT on December 29, 2014 (1:15 AM CST):
No PIREP is currently available for this location.
AIRMET - Airmens Meteorological Information
KGLY - Clinton, Missouri
Updated at 7:15 AM GMT on December 29, 2014 (1:15 AM CST):
No AIRMET is currently available for this location.
SIGMET - Significant Meteorological Information
KGLY - Clinton, Missouri
Updated at 7:15 AM GMT on December 29, 2014 (1:15 AM CST):
No SIGMET is currently available for this location.
NOTAM - Notice to Airmen
KGLY - Clinton, Missouri
Updated at 7:15 AM GMT on December 29, 2014 (1:15 AM CST):
No NOTAM is currently available for this location.
Forecast Area
KGLY - Clinton, Missouri
Updated at 7:15 AM GMT on December 29, 2014 (1:15 AM CST):
No NOTAM is currently available for this location.
Aviation Weather Maps